Time;durP1;ratioP1;P1;durP2;ratioP2;P2;SDS_P1;SDS_P2;PMS_P1;PMS_P2;Temp;Humidity;BMP_temperature;BMP_pressure;BME280_temperature;BME280_humidity;BME280_pressure;Samples;Min_cycle;Max_cycle;Signal;HPM_P1;HPM_P2
2023/07/22 00:01:51;;;;;;;864.97;595.10;;;;;;;;;;5030235;28;20434;-65
2023/07/22 00:04:21;;;;;;;866.80;599.80;;;;;;;;;;5030156;28;20438;-64
2023/07/22 00:06:51;;;;;;;869.23;602.43;;;;;;;;;;5038418;28;21100;-64
2023/07/22 00:09:19;;;;;;;863.00;598.92;;;;;;;;;;5029362;28;20434;-65
2023/07/22 00:11:46;;;;;;;866.45;613.10;;;;;;;;;;5034835;28;20513;-66
2023/07/22 00:14:13;;;;;;;862.60;612.28;;;;;;;;;;5030953;28;20496;-64
2023/07/22 00:16:41;;;;;;;866.47;613.67;;;;;;;;;;5019749;28;20425;-64
2023/07/22 00:19:08;;;;;;;864.03;612.17;;;;;;;;;;5026612;28;20441;-64
2023/07/22 00:21:37;;;;;;;861.97;607.08;;;;;;;;;;5018692;28;20929;-65
2023/07/22 00:24:04;;;;;;;858.53;611.50;;;;;;;;;;5025066;28;20515;-64
2023/07/22 00:26:32;;;;;;;859.47;609.20;;;;;;;;;;5035424;28;20478;-65
2023/07/22 00:28:59;;;;;;;857.42;606.70;;;;;;;;;;5026756;28;20439;-64
2023/07/22 00:31:29;;;;;;;856.23;601.97;;;;;;;;;;5030367;28;20434;-64
2023/07/22 00:33:56;;;;;;;858.53;602.13;;;;;;;;;;5025655;28;20431;-65
2023/07/22 00:36:29;;;;;;;857.15;600.88;;;;;;;;;;5029449;28;20422;-64
2023/07/22 00:38:56;;;;;;;854.40;594.08;;;;;;;;;;5023297;28;20504;-64
2023/07/22 00:41:32;;;;;;;855.25;588.65;;;;;;;;;;5024788;28;20971;-64
2023/07/22 00:44:02;;;;;;;851.03;581.27;;;;;;;;;;5026027;28;21004;-64
2023/07/22 00:46:32;;;;;;;850.72;579.38;;;;;;;;;;5010130;28;20511;-65
2023/07/22 00:48:59;;;;;;;839.83;573.10;;;;;;;;;;5016327;28;20469;-64
2023/07/22 00:51:30;;;;;;;842.00;573.15;;;;;;;;;;5027530;28;20822;-65
2023/07/22 00:54:00;;;;;;;827.33;539.93;;;;;;;;;;5019748;28;20458;-65
2023/07/22 00:56:27;;;;;;;839.13;566.90;;;;;;;;;;5032494;28;20431;-64
2023/07/22 00:58:56;;;;;;;841.83;570.13;;;;;;;;;;5028252;28;20504;-64
2023/07/22 01:01:23;;;;;;;845.22;589.10;;;;;;;;;;5025568;28;20439;-64
2023/07/22 01:03:50;;;;;;;843.33;576.37;;;;;;;;;;5034233;28;20437;-64
2023/07/22 01:06:20;;;;;;;839.72;568.97;;;;;;;;;;5031044;28;20435;-64
2023/07/22 01:08:48;;;;;;;840.95;574.85;;;;;;;;;;5031083;28;20494;-64
2023/07/22 01:11:15;;;;;;;846.92;585.53;;;;;;;;;;5028843;28;20520;-64
2023/07/22 01:13:43;;;;;;;844.78;583.10;;;;;;;;;;5025264;28;20427;-64
2023/07/22 01:16:10;;;;;;;839.67;560.88;;;;;;;;;;5024381;28;20607;-64
2023/07/22 01:18:38;;;;;;;841.25;567.70;;;;;;;;;;5037850;28;20812;-65
2023/07/22 01:21:07;;;;;;;843.73;573.87;;;;;;;;;;5010578;28;20508;-64
2023/07/22 01:23:37;;;;;;;842.03;566.55;;;;;;;;;;5014841;28;20448;-64
2023/07/22 01:26:04;;;;;;;845.97;575.30;;;;;;;;;;5024352;28;20627;-65
2023/07/22 01:28:31;;;;;;;846.58;573.00;;;;;;;;;;5030783;28;20512;-64
2023/07/22 01:30:58;;;;;;;847.72;580.50;;;;;;;;;;5029393;28;20429;-64
2023/07/22 01:33:27;;;;;;;848.08;582.97;;;;;;;;;;5037187;28;20433;-64
2023/07/22 01:35:57;;;;;;;846.33;573.75;;;;;;;;;;5012614;28;20827;-65
2023/07/22 01:38:24;;;;;;;845.35;574.92;;;;;;;;;;5026029;28;20428;-65
2023/07/22 01:40:51;;;;;;;839.53;563.45;;;;;;;;;;5025434;28;20431;-65
2023/07/22 01:43:18;;;;;;;840.42;575.38;;;;;;;;;;5026006;28;20946;-65
2023/07/22 01:45:46;;;;;;;843.60;588.92;;;;;;;;;;5034227;28;20520;-65
2023/07/22 01:48:13;;;;;;;833.85;559.00;;;;;;;;;;5024133;28;20505;-65
2023/07/22 01:50:40;;;;;;;801.78;550.40;;;;;;;;;;5022563;28;20426;-65
2023/07/22 01:53:07;;;;;;;802.45;558.45;;;;;;;;;;5027164;28;20513;-65
2023/07/22 01:55:37;;;;;;;795.35;541.45;;;;;;;;;;5025529;28;20904;-65
2023/07/22 01:58:04;;;;;;;789.45;538.47;;;;;;;;;;5021604;28;20433;-65
2023/07/22 02:00:31;;;;;;;786.78;539.67;;;;;;;;;;5031681;28;20508;-64
2023/07/22 02:02:58;;;;;;;786.70;545.95;;;;;;;;;;5023071;28;20443;-64
2023/07/22 02:05:27;;;;;;;784.08;542.22;;;;;;;;;;5030413;28;20909;-65
2023/07/22 02:07:55;;;;;;;781.42;530.25;;;;;;;;;;5025070;28;20469;-65
2023/07/22 02:10:22;;;;;;;785.95;540.67;;;;;;;;;;5035562;28;20490;-65
2023/07/22 02:12:49;;;;;;;775.72;521.25;;;;;;;;;;5028535;28;20986;-65
2023/07/22 02:15:19;;;;;;;779.90;540.43;;;;;;;;;;5029734;28;20455;-65
2023/07/22 02:17:49;;;;;;;786.20;508.75;;;;;;;;;;5030539;28;20441;-64
2023/07/22 02:20:17;;;;;;;780.97;493.02;;;;;;;;;;5030021;28;20432;-65
2023/07/22 02:22:44;;;;;;;779.42;499.83;;;;;;;;;;5032339;28;20426;-65
2023/07/22 02:25:11;;;;;;;780.30;516.58;;;;;;;;;;5036160;28;20859;-65
2023/07/22 02:27:40;;;;;;;779.85;509.27;;;;;;;;;;5032917;28;20422;-65
2023/07/22 02:30:10;;;;;;;765.97;507.70;;;;;;;;;;5007634;28;20958;-65
2023/07/22 02:32:40;;;;;;;766.08;509.85;;;;;;;;;;5024436;28;20984;-65
2023/07/22 02:35:08;;;;;;;767.65;514.03;;;;;;;;;;5024899;28;20822;-65
2023/07/22 02:37:38;;;;;;;765.65;513.55;;;;;;;;;;5031440;28;20433;-66
2023/07/22 02:40:11;;;;;;;763.33;514.75;;;;;;;;;;5025351;28;20457;-65
2023/07/22 02:42:38;;;;;;;753.40;502.48;;;;;;;;;;5029606;28;20962;-66
2023/07/22 02:45:07;;;;;;;749.15;501.45;;;;;;;;;;5028138;28;20440;-65
2023/07/22 02:47:35;;;;;;;738.20;480.27;;;;;;;;;;5025576;28;20425;-65
2023/07/22 02:50:03;;;;;;;730.83;479.40;;;;;;;;;;5025766;28;20519;-65
2023/07/22 02:52:30;;;;;;;722.50;464.23;;;;;;;;;;5030241;28;20514;-65
2023/07/22 02:55:07;;;;;;;721.67;471.80;;;;;;;;;;5030082;28;21021;-64
2023/07/22 02:57:34;;;;;;;730.83;474.05;;;;;;;;;;5026161;28;20497;-65
2023/07/22 03:00:07;;;;;;;729.13;480.75;;;;;;;;;;5014680;28;20433;-66
2023/07/22 03:02:37;;;;;;;727.45;463.20;;;;;;;;;;5029844;28;20527;-65
2023/07/22 03:05:08;;;;;;;727.80;468.60;;;;;;;;;;5031189;28;20432;-65
2023/07/22 03:07:35;;;;;;;733.50;475.95;;;;;;;;;;5038806;28;20524;-65
2023/07/22 03:10:03;;;;;;;733.03;471.35;;;;;;;;;;5024328;28;20436;-65
2023/07/22 03:12:30;;;;;;;729.30;471.98;;;;;;;;;;5028753;28;20437;-65
2023/07/22 03:14:57;;;;;;;734.47;470.38;;;;;;;;;;5031865;28;20519;-65
2023/07/22 03:17:28;;;;;;;733.95;478.33;;;;;;;;;;5036756;28;20444;-65
2023/07/22 03:19:57;;;;;;;722.45;453.05;;;;;;;;;;5032128;28;20911;-65
2023/07/22 03:22:24;;;;;;;721.83;444.80;;;;;;;;;;5029118;28;20530;-65
2023/07/22 03:24:51;;;;;;;709.17;454.27;;;;;;;;;;5027251;28;20445;-65
2023/07/22 03:27:19;;;;;;;703.90;447.38;;;;;;;;;;5029770;28;20436;-65
2023/07/22 03:29:47;;;;;;;694.13;433.37;;;;;;;;;;5032495;28;20547;-65
2023/07/22 03:32:14;;;;;;;694.10;438.85;;;;;;;;;;5023767;28;20439;-65
2023/07/22 03:34:44;;;;;;;700.47;473.90;;;;;;;;;;5024611;28;20516;-65
2023/07/22 03:37:11;;;;;;;693.88;445.45;;;;;;;;;;5023106;28;20431;-65
2023/07/22 03:39:39;;;;;;;690.70;460.95;;;;;;;;;;5033467;28;20429;-65
2023/07/22 03:42:06;;;;;;;688.20;456.33;;;;;;;;;;5035494;28;20523;-66
2023/07/22 03:44:33;;;;;;;684.53;438.10;;;;;;;;;;5023819;28;20838;-65
2023/07/22 03:47:00;;;;;;;706.95;438.30;;;;;;;;;;5033317;28;20491;-65
2023/07/22 03:49:27;;;;;;;711.70;471.20;;;;;;;;;;5027851;28;20446;-65
2023/07/22 03:51:55;;;;;;;719.17;463.67;;;;;;;;;;5027871;28;20427;-65
2023/07/22 03:54:22;;;;;;;723.72;471.67;;;;;;;;;;5031873;28;20437;-65
2023/07/22 03:56:49;;;;;;;713.97;460.15;;;;;;;;;;5032976;28;20432;-65
2023/07/22 03:59:16;;;;;;;718.55;477.02;;;;;;;;;;5023547;28;20422;-65
2023/07/22 04:01:44;;;;;;;717.27;473.00;;;;;;;;;;5017859;28;20434;-65
2023/07/22 04:04:14;;;;;;;712.00;464.33;;;;;;;;;;5018776;28;20434;-66
2023/07/22 04:06:41;;;;;;;707.05;472.88;;;;;;;;;;5022673;28;20435;-65
2023/07/22 04:09:08;;;;;;;700.40;436.53;;;;;;;;;;5028653;28;20612;-66
2023/07/22 04:11:36;;;;;;;703.28;418.95;;;;;;;;;;5032621;28;20603;-66
2023/07/22 04:14:03;;;;;;;698.75;415.73;;;;;;;;;;5038282;28;20441;-65
2023/07/22 04:16:31;;;;;;;695.77;411.33;;;;;;;;;;5024597;28;20627;-65
2023/07/22 04:18:58;;;;;;;680.50;420.15;;;;;;;;;;5031979;28;20484;-65
2023/07/22 04:21:25;;;;;;;685.63;429.47;;;;;;;;;;5030086;28;20519;-65
2023/07/22 04:23:53;;;;;;;683.20;443.33;;;;;;;;;;5038462;28;21175;-66
2023/07/22 04:26:20;;;;;;;694.03;436.50;;;;;;;;;;5025638;28;20428;-66
2023/07/22 04:28:47;;;;;;;697.55;466.45;;;;;;;;;;5034902;28;20433;-65
2023/07/22 04:31:18;;;;;;;696.83;463.98;;;;;;;;;;5028735;28;20761;-65
2023/07/22 04:33:45;;;;;;;692.72;447.48;;;;;;;;;;5037706;28;20457;-66
2023/07/22 04:36:12;;;;;;;702.47;477.00;;;;;;;;;;5021895;28;20517;-65
2023/07/22 04:38:40;;;;;;;698.55;459.48;;;;;;;;;;5027674;28;20509;-66
2023/07/22 04:41:07;;;;;;;708.08;455.60;;;;;;;;;;5030922;28;20435;-65
2023/07/22 04:43:39;;;;;;;706.33;450.37;;;;;;;;;;5026861;28;21006;-66
2023/07/22 04:46:08;;;;;;;712.10;459.13;;;;;;;;;;5032406;28;20435;-65
2023/07/22 04:48:36;;;;;;;719.10;472.05;;;;;;;;;;5027950;28;20451;-65
2023/07/22 04:51:04;;;;;;;758.22;531.33;;;;;;;;;;5027960;28;20425;-66
2023/07/22 04:53:31;;;;;;;803.28;592.83;;;;;;;;;;5029423;28;20513;-66
2023/07/22 04:55:58;;;;;;;832.78;622.50;;;;;;;;;;5027614;28;20445;-66
2023/07/22 04:58:25;;;;;;;862.33;640.22;;;;;;;;;;5027289;28;20429;-66
2023/07/22 05:00:52;;;;;;;864.80;648.17;;;;;;;;;;5027153;28;20932;-65
2023/07/22 05:03:25;;;;;;;875.30;659.07;;;;;;;;;;5026883;28;20432;-66
2023/07/22 05:05:53;;;;;;;883.17;667.38;;;;;;;;;;5027796;28;20431;-66
2023/07/22 05:08:27;;;;;;;897.05;673.22;;;;;;;;;;5028874;28;20438;-66
2023/07/22 05:10:56;;;;;;;900.53;680.00;;;;;;;;;;5033891;28;20452;-67
2023/07/22 05:13:24;;;;;;;901.45;687.30;;;;;;;;;;5025301;28;20515;-66
2023/07/22 05:15:53;;;;;;;911.78;692.97;;;;;;;;;;5032964;28;20417;-66
2023/07/22 05:18:23;;;;;;;917.10;697.13;;;;;;;;;;5017340;28;20557;-66
2023/07/22 05:20:50;;;;;;;911.40;700.43;;;;;;;;;;5024016;28;20505;-66
2023/07/22 05:23:17;;;;;;;917.25;709.33;;;;;;;;;;5024482;28;20441;-66
2023/07/22 05:25:44;;;;;;;923.90;720.58;;;;;;;;;;5031334;28;20436;-66
2023/07/22 05:28:14;;;;;;;940.95;733.67;;;;;;;;;;5028159;28;20429;-66
2023/07/22 05:30:42;;;;;;;946.38;745.03;;;;;;;;;;5030937;28;20428;-66
2023/07/22 05:33:09;;;;;;;948.67;748.25;;;;;;;;;;5024149;28;20430;-66
2023/07/22 05:35:36;;;;;;;947.72;749.55;;;;;;;;;;5028789;28;20456;-66
2023/07/22 05:38:05;;;;;;;953.08;756.72;;;;;;;;;;5015035;28;20837;-67
2023/07/22 05:40:33;;;;;;;958.55;759.72;;;;;;;;;;5023867;28;20439;-66
2023/07/22 05:43:00;;;;;;;971.47;778.25;;;;;;;;;;5026288;28;20431;-66
2023/07/22 05:45:28;;;;;;;979.97;790.45;;;;;;;;;;5023960;28;20469;-66
2023/07/22 05:47:55;;;;;;;987.67;802.53;;;;;;;;;;5023225;28;20434;-66
2023/07/22 05:50:25;;;;;;;992.95;812.83;;;;;;;;;;5020761;28;20524;-67
2023/07/22 05:52:52;;;;;;;997.58;818.53;;;;;;;;;;5026372;28;20432;-67
2023/07/22 05:55:20;;;;;;;1002.60;828.67;;;;;;;;;;5048043;28;20482;-66
2023/07/22 05:57:50;;;;;;;1010.80;841.08;;;;;;;;;;5042571;28;20430;-68
2023/07/22 06:00:17;;;;;;;1009.33;838.00;;;;;;;;;;5011912;28;20486;-68
2023/07/22 06:02:44;;;;;;;984.25;851.97;;;;;;;;;;5019083;28;20933;-64
2023/07/22 06:05:11;;;;;;;968.00;863.78;;;;;;;;;;5025462;28;20516;-66
2023/07/22 06:07:38;;;;;;;972.20;860.63;;;;;;;;;;5027378;28;20436;-65
2023/07/22 06:10:06;;;;;;;1005.13;837.78;;;;;;;;;;5025323;28;20442;-66
2023/07/22 06:12:33;;;;;;;968.17;780.03;;;;;;;;;;5025911;28;20509;-67
2023/07/22 06:15:00;;;;;;;931.13;740.95;;;;;;;;;;5029800;28;20526;-66
2023/07/22 06:17:28;;;;;;;876.28;692.78;;;;;;;;;;5024256;28;20436;-66
2023/07/22 06:19:57;;;;;;;833.22;653.33;;;;;;;;;;5021608;28;20501;-67
2023/07/22 06:22:24;;;;;;;814.03;634.85;;;;;;;;;;5022651;28;20440;-66
2023/07/22 06:24:52;;;;;;;756.35;582.30;;;;;;;;;;5029205;28;20522;-67
2023/07/22 06:27:19;;;;;;;703.75;529.42;;;;;;;;;;5020922;28;20450;-66
2023/07/22 06:29:49;;;;;;;637.70;455.42;;;;;;;;;;5023901;28;20450;-66
2023/07/22 06:32:16;;;;;;;584.30;390.45;;;;;;;;;;5013239;28;20434;-66
2023/07/22 06:34:43;;;;;;;558.53;348.15;;;;;;;;;;5022003;28;20434;-66
2023/07/22 06:37:10;;;;;;;528.78;325.80;;;;;;;;;;5015216;28;20529;-67
2023/07/22 06:39:38;;;;;;;526.75;311.42;;;;;;;;;;5019782;28;20811;-65
2023/07/22 06:42:05;;;;;;;527.95;321.17;;;;;;;;;;5019438;28;20450;-65
2023/07/22 06:44:33;;;;;;;538.57;334.80;;;;;;;;;;5023717;28;20429;-67
2023/07/22 06:47:01;;;;;;;545.45;343.40;;;;;;;;;;5028129;28;20512;-67
2023/07/22 06:49:28;;;;;;;533.80;331.35;;;;;;;;;;5014618;28;20868;-66
2023/07/22 06:51:58;;;;;;;538.00;345.30;;;;;;;;;;5015041;28;20513;-67
2023/07/22 06:54:25;;;;;;;534.60;343.45;;;;;;;;;;5024905;28;20423;-65
2023/07/22 06:56:52;;;;;;;542.27;349.10;;;;;;;;;;5015859;28;20439;-67
2023/07/22 06:59:19;;;;;;;535.83;351.70;;;;;;;;;;5029375;28;20567;-65
2023/07/22 07:01:47;;;;;;;537.03;349.40;;;;;;;;;;5026968;28;20528;-67
2023/07/22 07:04:14;;;;;;;542.07;354.70;;;;;;;;;;5026270;28;21027;-66
2023/07/22 07:06:41;;;;;;;552.72;377.38;;;;;;;;;;5030458;28;20427;-66
2023/07/22 07:09:08;;;;;;;558.35;382.35;;;;;;;;;;5018437;28;20436;-66
2023/07/22 07:11:35;;;;;;;559.60;385.83;;;;;;;;;;5016022;28;20907;-67
2023/07/22 07:14:03;;;;;;;554.78;385.08;;;;;;;;;;5012263;28;20437;-67
2023/07/22 07:16:31;;;;;;;561.08;390.70;;;;;;;;;;5019269;28;20832;-67
2023/07/22 07:19:00;;;;;;;579.30;427.07;;;;;;;;;;4973194;28;20598;-67
2023/07/22 07:21:28;;;;;;;557.97;418.38;;;;;;;;;;5015366;28;20973;-67
2023/07/22 07:23:55;;;;;;;528.42;394.00;;;;;;;;;;5019097;28;20534;-68
2023/07/22 07:26:23;;;;;;;533.70;415.37;;;;;;;;;;5024920;28;20438;-66
2023/07/22 07:28:51;;;;;;;634.13;564.17;;;;;;;;;;5023550;28;20484;-66
2023/07/22 07:31:22;;;;;;;797.50;710.95;;;;;;;;;;5009790;28;20496;-67
2023/07/22 07:33:49;;;;;;;889.00;787.37;;;;;;;;;;5021354;28;20449;-65
2023/07/22 07:36:17;;;;;;;932.22;810.10;;;;;;;;;;5021795;28;20435;-65
2023/07/22 07:38:44;;;;;;;948.77;813.53;;;;;;;;;;5022798;28;20444;-65
2023/07/22 07:41:12;;;;;;;966.13;830.33;;;;;;;;;;5006176;28;20462;-66
2023/07/22 07:43:40;;;;;;;965.20;823.83;;;;;;;;;;5003287;28;20443;-64
2023/07/22 07:46:14;;;;;;;974.67;826.38;;;;;;;;;;5020320;28;20532;-64
2023/07/22 07:48:42;;;;;;;974.58;824.70;;;;;;;;;;5021934;28;20431;-63
2023/07/22 07:51:09;;;;;;;978.77;827.70;;;;;;;;;;5024293;28;20434;-65
2023/07/22 07:53:36;;;;;;;978.88;830.25;;;;;;;;;;5019686;28;20940;-65
2023/07/22 07:56:06;;;;;;;989.55;837.88;;;;;;;;;;5017956;28;20967;-65
2023/07/22 07:58:37;;;;;;;1001.95;844.75;;;;;;;;;;5018217;28;20467;-69
2023/07/22 08:01:05;;;;;;;984.15;823.92;;;;;;;;;;5022031;28;20435;-64
2023/07/22 08:03:33;;;;;;;983.58;820.65;;;;;;;;;;5019729;28;20848;-65
2023/07/22 08:06:00;;;;;;;994.08;832.50;;;;;;;;;;5000330;28;20513;-65
2023/07/22 08:08:28;;;;;;;990.15;827.15;;;;;;;;;;5019739;28;20445;-64
2023/07/22 08:10:59;;;;;;;985.30;819.70;;;;;;;;;;5016616;28;20437;-63
2023/07/22 08:13:27;;;;;;;990.28;830.53;;;;;;;;;;5020718;28;20435;-63
2023/07/22 08:15:54;;;;;;;996.05;838.40;;;;;;;;;;5021732;28;20517;-62
2023/07/22 08:18:21;;;;;;;999.15;837.88;;;;;;;;;;5023424;28;20462;-63
2023/07/22 08:20:49;;;;;;;994.35;835.28;;;;;;;;;;5021365;28;20439;-62
2023/07/22 08:23:18;;;;;;;1000.13;833.00;;;;;;;;;;5022488;28;20431;-65
2023/07/22 08:25:45;;;;;;;999.40;837.45;;;;;;;;;;5022864;28;20496;-62
2023/07/22 08:28:13;;;;;;;996.75;827.15;;;;;;;;;;5003564;28;20434;-62
2023/07/22 08:30:40;;;;;;;1001.60;834.08;;;;;;;;;;5018565;28;20937;-62
2023/07/22 08:33:08;;;;;;;1004.80;837.42;;;;;;;;;;5022680;28;20451;-62
2023/07/22 08:35:36;;;;;;;1003.00;849.78;;;;;;;;;;5027208;28;20426;-63
2023/07/22 08:38:03;;;;;;;971.10;854.33;;;;;;;;;;5016341;28;20442;-62
2023/07/22 08:40:37;;;;;;;964.65;857.60;;;;;;;;;;5023728;28;20797;-63
2023/07/22 08:43:05;;;;;;;960.95;856.72;;;;;;;;;;5024963;28;20581;-62
2023/07/22 08:45:34;;;;;;;969.10;860.30;;;;;;;;;;5005151;28;20435;-62
2023/07/22 08:48:04;;;;;;;948.57;852.07;;;;;;;;;;5022302;28;20435;-62
2023/07/22 08:50:34;;;;;;;948.63;850.33;;;;;;;;;;5022430;28;21003;-63
2023/07/22 08:53:05;;;;;;;945.70;850.67;;;;;;;;;;5016513;28;20920;-62
2023/07/22 08:55:32;;;;;;;946.35;856.17;;;;;;;;;;5028919;28;20974;-64
2023/07/22 08:57:59;;;;;;;956.07;862.23;;;;;;;;;;5023769;28;20827;-60
2023/07/22 09:00:26;;;;;;;960.28;861.75;;;;;;;;;;5027244;28;20511;-62
2023/07/22 09:02:54;;;;;;;953.08;862.13;;;;;;;;;;5023429;28;20532;-62
2023/07/22 09:05:21;;;;;;;908.37;830.80;;;;;;;;;;5018639;28;20430;-63
2023/07/22 09:07:50;;;;;;;840.85;768.30;;;;;;;;;;5020495;28;20825;-63
2023/07/22 09:10:17;;;;;;;927.10;848.53;;;;;;;;;;5013102;28;20464;-61
2023/07/22 09:12:44;;;;;;;947.05;865.58;;;;;;;;;;5022024;28;20523;-61
2023/07/22 09:15:12;;;;;;;960.15;871.13;;;;;;;;;;5023163;28;20866;-62
2023/07/22 09:17:40;;;;;;;977.42;878.00;;;;;;;;;;5026616;28;20461;-60
2023/07/22 09:20:09;;;;;;;941.15;851.83;;;;;;;;;;5017375;28;20528;-61
2023/07/22 09:22:36;;;;;;;938.60;851.17;;;;;;;;;;5023189;28;20554;-61
2023/07/22 09:25:16;;;;;;;938.33;850.08;;;;;;;;;;5021041;28;20434;-61
2023/07/22 09:27:43;;;;;;;922.87;836.23;;;;;;;;;;5025215;28;20431;-61
2023/07/22 09:30:23;;;;;;;917.53;830.17;;;;;;;;;;5020178;28;20481;-62
2023/07/22 09:32:52;;;;;;;891.42;810.15;;;;;;;;;;5034713;28;20516;-62
2023/07/22 09:35:19;;;;;;;884.30;805.60;;;;;;;;;;5030930;28;20522;-61
2023/07/22 09:37:46;;;;;;;877.00;798.40;;;;;;;;;;5015658;28;20450;-62
2023/07/22 09:40:14;;;;;;;880.63;804.57;;;;;;;;;;5018746;28;20522;-62
2023/07/22 09:42:43;;;;;;;884.85;809.10;;;;;;;;;;5000336;28;20541;-62
2023/07/22 09:45:10;;;;;;;875.10;800.07;;;;;;;;;;5020225;28;20485;-62
2023/07/22 09:47:43;;;;;;;881.55;805.30;;;;;;;;;;5017305;28;20442;-62
2023/07/22 09:50:11;;;;;;;879.80;803.83;;;;;;;;;;5022447;28;20434;-64
2023/07/22 09:52:42;;;;;;;850.38;777.83;;;;;;;;;;5033614;28;20429;-64
2023/07/22 09:55:09;;;;;;;839.30;767.63;;;;;;;;;;5004463;28;20438;-63
2023/07/22 09:57:37;;;;;;;881.63;804.70;;;;;;;;;;5014019;28;20481;-62
2023/07/22 10:00:09;;;;;;;801.50;732.60;;;;;;;;;;5019940;28;20446;-63
2023/07/22 10:02:37;;;;;;;813.63;743.70;;;;;;;;;;5026936;28;20976;-63
2023/07/22 10:05:05;;;;;;;882.25;806.38;;;;;;;;;;5010662;28;20475;-63
2023/07/22 10:07:34;;;;;;;901.53;821.13;;;;;;;;;;5018140;28;20514;-64
2023/07/22 10:10:02;;;;;;;925.40;842.58;;;;;;;;;;5019511;28;20438;-64
2023/07/22 10:12:33;;;;;;;914.35;834.15;;;;;;;;;;5024363;28;20436;-61
2023/07/22 10:15:01;;;;;;;837.65;765.55;;;;;;;;;;5015879;28;20475;-60
2023/07/22 10:17:29;;;;;;;632.70;573.43;;;;;;;;;;5028987;28;20481;-62
2023/07/22 10:19:56;;;;;;;604.17;546.97;;;;;;;;;;5029657;28;20937;-61
2023/07/22 10:22:27;;;;;;;550.35;497.13;;;;;;;;;;5032435;28;20809;-61
2023/07/22 10:24:57;;;;;;;502.30;452.52;;;;;;;;;;5017260;28;20431;-60
2023/07/22 10:27:25;;;;;;;494.42;445.33;;;;;;;;;;5026282;28;20423;-60
2023/07/22 10:29:55;;;;;;;494.98;446.00;;;;;;;;;;5028485;28;20426;-60
2023/07/22 10:32:22;;;;;;;973.43;890.57;;;;;;;;;;5014446;28;20731;-61
2023/07/22 10:34:49;;;;;;;970.78;886.70;;;;;;;;;;5015660;28;20496;-60
2023/07/22 10:37:24;;;;;;;897.47;821.58;;;;;;;;;;5027907;28;20446;-61
2023/07/22 10:39:51;;;;;;;903.83;827.50;;;;;;;;;;5017636;28;20905;-62
2023/07/22 10:42:25;;;;;;;927.85;848.97;;;;;;;;;;5026193;28;20491;-62
2023/07/22 10:44:52;;;;;;;870.55;796.60;;;;;;;;;;5040693;28;20484;-61
2023/07/22 10:47:40;;;;;;;779.17;710.72;;;;;;;;;;5010014;28;20822;-61
2023/07/22 10:50:08;;;;;;;726.73;661.53;;;;;;;;;;5027078;28;20439;-61
2023/07/22 10:52:42;;;;;;;708.17;644.03;;;;;;;;;;5023653;28;20444;-61
2023/07/22 10:55:16;;;;;;;760.55;693.42;;;;;;;;;;5021089;28;20439;-62
2023/07/22 10:57:55;;;;;;;702.83;639.00;;;;;;;;;;4999179;28;20459;-61
2023/07/22 11:00:23;;;;;;;729.33;664.05;;;;;;;;;;5020973;28;20434;-62
2023/07/22 11:03:09;;;;;;;688.43;625.67;;;;;;;;;;5008635;28;21064;-60
2023/07/22 11:05:50;;;;;;;671.53;609.75;;;;;;;;;;5025713;28;20640;-60
2023/07/22 11:08:17;;;;;;;559.95;505.60;;;;;;;;;;5023492;28;20445;-60
2023/07/22 11:10:57;;;;;;;535.25;482.65;;;;;;;;;;5027790;28;20433;-60
2023/07/22 11:13:28;;;;;;;566.58;511.38;;;;;;;;;;5008350;28;20435;-62
2023/07/22 11:16:01;;;;;;;527.03;474.70;;;;;;;;;;5019103;28;20529;-61
2023/07/22 11:18:41;;;;;;;523.17;471.17;;;;;;;;;;5024886;28;21442;-60
2023/07/22 11:21:10;;;;;;;485.33;436.13;;;;;;;;;;5018590;28;20472;-60
2023/07/22 11:23:41;;;;;;;537.50;484.45;;;;;;;;;;5016479;28;20509;-61
2023/07/22 11:26:08;;;;;;;525.55;473.33;;;;;;;;;;5013213;28;20436;-61
2023/07/22 11:28:35;;;;;;;502.35;451.77;;;;;;;;;;5023672;28;20441;-59
2023/07/22 11:31:03;;;;;;;494.13;444.33;;;;;;;;;;5020467;28;20520;-61
2023/07/22 11:33:38;;;;;;;583.43;527.13;;;;;;;;;;5008630;28;20428;-60
2023/07/22 11:36:09;;;;;;;728.17;662.58;;;;;;;;;;5025621;28;20446;-60
2023/07/22 11:38:39;;;;;;;719.00;654.07;;;;;;;;;;5024951;28;20438;-58
2023/07/22 11:41:07;;;;;;;646.33;585.95;;;;;;;;;;5024236;28;20443;-58
2023/07/22 11:43:37;;;;;;;585.03;529.13;;;;;;;;;;5025876;28;20431;-58
2023/07/22 11:46:08;;;;;;;645.22;585.35;;;;;;;;;;5022269;28;20872;-58
2023/07/22 11:48:35;;;;;;;591.20;535.20;;;;;;;;;;5023313;28;20435;-59
2023/07/22 11:51:02;;;;;;;633.42;574.22;;;;;;;;;;5024492;28;20921;-59
2023/07/22 11:53:29;;;;;;;557.05;502.75;;;;;;;;;;5024991;28;20434;-58
2023/07/22 11:55:58;;;;;;;601.33;544.13;;;;;;;;;;5027251;28;20897;-57
2023/07/22 11:58:28;;;;;;;607.53;550.23;;;;;;;;;;5023879;28;20430;-59
2023/07/22 12:01:11;;;;;;;630.00;571.22;;;;;;;;;;5018715;28;20439;-58
2023/07/22 12:03:40;;;;;;;622.08;563.65;;;;;;;;;;5023927;28;20813;-59
2023/07/22 12:06:07;;;;;;;626.72;567.88;;;;;;;;;;5026616;28;20526;-59
2023/07/22 12:08:35;;;;;;;609.28;551.88;;;;;;;;;;5022012;28;20435;-59
2023/07/22 12:11:03;;;;;;;576.30;521.13;;;;;;;;;;5020139;28;20514;-60
2023/07/22 12:13:36;;;;;;;585.60;529.63;;;;;;;;;;5024553;28;20517;-59
2023/07/22 12:16:04;;;;;;;585.05;529.05;;;;;;;;;;5017623;28;20426;-59
2023/07/22 12:18:47;;;;;;;635.50;576.17;;;;;;;;;;5002092;28;20441;-59
2023/07/22 12:21:14;;;;;;;579.05;523.50;;;;;;;;;;5021572;28;20423;-59
2023/07/22 12:23:42;;;;;;;591.67;535.55;;;;;;;;;;5021414;28;20879;-58
2023/07/22 12:26:10;;;;;;;589.42;533.08;;;;;;;;;;5014093;28;20943;-59
2023/07/22 12:28:37;;;;;;;731.33;665.83;;;;;;;;;;5020385;28;20785;-59
2023/07/22 12:31:04;;;;;;;610.90;553.70;;;;;;;;;;5023510;28;21003;-59
2023/07/22 12:33:31;;;;;;;604.88;548.10;;;;;;;;;;5018838;28;20451;-59
2023/07/22 12:36:04;;;;;;;636.83;577.42;;;;;;;;;;5023961;28;20436;-59
2023/07/22 12:38:32;;;;;;;541.17;488.77;;;;;;;;;;5004186;28;20441;-59
2023/07/22 12:41:00;;;;;;;517.23;466.63;;;;;;;;;;5017152;28;20544;-59
2023/07/22 12:43:30;;;;;;;522.60;471.65;;;;;;;;;;5022966;28;20453;-59
2023/07/22 12:45:57;;;;;;;662.13;601.10;;;;;;;;;;5021157;28;21004;-59
2023/07/22 12:48:24;;;;;;;920.08;842.55;;;;;;;;;;5007855;28;20426;-58
2023/07/22 12:50:52;;;;;;;911.93;834.73;;;;;;;;;;5018712;28;20518;-59
2023/07/22 12:53:19;;;;;;;875.08;800.17;;;;;;;;;;5017900;28;20436;-59
2023/07/22 12:55:46;;;;;;;847.42;774.05;;;;;;;;;;5024263;28;20512;-60
2023/07/22 12:58:14;;;;;;;825.83;753.72;;;;;;;;;;5003967;28;20507;-60
2023/07/22 13:00:41;;;;;;;780.65;711.58;;;;;;;;;;5024327;28;20485;-59
2023/07/22 13:03:08;;;;;;;721.88;656.75;;;;;;;;;;5018121;28;20441;-59
2023/07/22 13:05:36;;;;;;;738.70;672.13;;;;;;;;;;5023830;28;20425;-59
2023/07/22 13:08:03;;;;;;;799.92;729.45;;;;;;;;;;5016904;28;20782;-59
2023/07/22 13:10:31;;;;;;;724.42;658.95;;;;;;;;;;5022157;28;20518;-59
2023/07/22 13:12:58;;;;;;;768.55;700.03;;;;;;;;;;5025066;28;20479;-59
2023/07/22 13:15:26;;;;;;;748.92;681.67;;;;;;;;;;5022040;28;20851;-61
2023/07/22 13:17:53;;;;;;;780.88;711.72;;;;;;;;;;5024195;28;20515;-62
2023/07/22 13:20:20;;;;;;;812.65;741.28;;;;;;;;;;5018378;28;20670;-61
2023/07/22 13:22:47;;;;;;;835.08;762.35;;;;;;;;;;5017318;28;20776;-60
2023/07/22 13:25:14;;;;;;;774.50;705.40;;;;;;;;;;5019275;28;20442;-60
2023/07/22 13:27:42;;;;;;;831.53;759.03;;;;;;;;;;5003464;28;20445;-60
2023/07/22 13:30:10;;;;;;;736.25;670.08;;;;;;;;;;5025179;28;20521;-61
2023/07/22 13:32:37;;;;;;;682.03;619.65;;;;;;;;;;5029708;28;20435;-61
2023/07/22 13:35:07;;;;;;;595.70;539.58;;;;;;;;;;5019536;28;21137;-60
2023/07/22 13:37:35;;;;;;;516.90;466.50;;;;;;;;;;5024487;28;20493;-61
2023/07/22 13:40:04;;;;;;;535.15;483.30;;;;;;;;;;5016615;28;20467;-61
2023/07/22 13:42:32;;;;;;;478.60;431.58;;;;;;;;;;5022551;28;21010;-61
2023/07/22 13:44:59;;;;;;;479.67;432.92;;;;;;;;;;5020591;28;20508;-58
2023/07/22 13:47:26;;;;;;;516.85;466.58;;;;;;;;;;5029474;28;20440;-60
2023/07/22 13:49:55;;;;;;;596.55;540.67;;;;;;;;;;5021090;28;20940;-59
2023/07/22 13:52:22;;;;;;;482.90;435.80;;;;;;;;;;5018546;28;20466;-58
2023/07/22 13:54:49;;;;;;;387.40;351.58;;;;;;;;;;5018451;28;21118;-59
2023/07/22 13:57:16;;;;;;;360.63;328.27;;;;;;;;;;5025329;28;20990;-59
2023/07/22 13:59:43;;;;;;;419.65;380.10;;;;;;;;;;5013500;28;20435;-59